Time;durP1;ratioP1;P1;durP2;ratioP2;P2;SDS_P1;SDS_P2;PMS_P1;PMS_P2;Temp;Humidity;BMP_temperature;BMP_pressure;BME280_temperature;BME280_humidity;BME280_pressure;Samples;Min_cycle;Max_cycle;Signal;HPM_P1;HPM_P2
2022/05/13 00:01:28;;;;;;;8.97;6.70;;;;;;;18.57;100.00;96660.41;5037846;28;20210;-82
2022/05/13 00:03:57;;;;;;;7.37;6.57;;;;;;;18.56;100.00;96658.72;5023961;28;20237;-83
2022/05/13 00:06:24;;;;;;;10.37;6.90;;;;;;;18.44;100.00;96652.72;5026256;28;20207;-83
2022/05/13 00:08:52;;;;;;;10.80;7.10;;;;;;;18.33;100.00;96648.34;5042949;28;20267;-83
2022/05/13 00:11:19;;;;;;;11.13;6.93;;;;;;;18.32;100.00;96658.44;5030342;28;20209;-83
2022/05/13 00:13:46;;;;;;;7.90;6.63;;;;;;;18.37;100.00;96655.69;5025010;28;20304;-82
2022/05/13 00:16:13;;;;;;;8.17;6.30;;;;;;;18.42;100.00;96663.94;5042324;28;20267;-82
2022/05/13 00:18:41;;;;;;;8.63;6.20;;;;;;;18.41;100.00;96656.81;5037429;28;20230;-83
2022/05/13 00:21:10;;;;;;;8.87;7.10;;;;;;;18.41;100.00;96661.47;5014444;28;20230;-82
2022/05/13 00:23:37;;;;;;;11.60;7.00;;;;;;;18.37;100.00;96658.44;5021425;28;20304;-82
2022/05/13 00:26:05;;;;;;;8.47;6.67;;;;;;;18.35;100.00;96655.19;5039103;28;20194;-83
2022/05/13 00:28:32;;;;;;;8.27;6.27;;;;;;;18.30;100.00;96654.34;5036647;28;20213;-82
2022/05/13 00:31:04;;;;;;;10.40;6.67;;;;;;;18.15;100.00;96645.03;5019534;28;20195;-83
2022/05/13 00:33:33;;;;;;;12.27;7.40;;;;;;;18.15;100.00;96658.69;5030827;28;20210;-82
2022/05/13 00:36:00;;;;;;;7.57;6.87;;;;;;;17.98;100.00;96644.44;5020977;28;20260;-82
2022/05/13 00:38:28;;;;;;;11.57;6.83;;;;;;;18.04;100.00;96646.09;5029412;28;20222;-82
2022/05/13 00:40:55;;;;;;;10.17;7.27;;;;;;;18.03;100.00;96651.84;5025153;28;20221;-82
2022/05/13 00:43:39;;;;;;;9.17;7.00;;;;;;;18.05;100.00;96642.28;5046718;28;20225;-83
2022/05/13 00:46:06;;;;;;;8.33;6.77;;;;;;;18.15;100.00;96647.75;5029802;28;20261;-83
2022/05/13 00:48:33;;;;;;;8.67;6.93;;;;;;;18.10;100.00;96634.09;5034694;28;20199;-83
2022/05/13 00:51:00;;;;;;;7.93;6.90;;;;;;;18.12;100.00;96625.59;5042092;28;20210;-82
2022/05/13 00:53:29;;;;;;;9.93;6.93;;;;;;;18.11;100.00;96613.06;5021364;28;20206;-83
2022/05/13 00:55:57;;;;;;;7.70;6.90;;;;;;;18.04;100.00;96610.56;5038479;28;20230;-82
2022/05/13 00:58:25;;;;;;;9.50;7.23;;;;;;;17.95;100.00;96606.72;5014995;28;20264;-82
2022/05/13 01:00:52;;;;;;;10.23;6.90;;;;;;;17.70;100.00;96588.38;5027031;28;20222;-82
2022/05/13 01:03:20;;;;;;;7.60;6.77;;;;;;;17.69;100.00;96594.94;5023774;28;20198;-82
2022/05/13 01:05:53;;;;;;;10.10;7.43;;;;;;;17.76;100.00;96600.97;5038505;28;20203;-82
2022/05/13 01:08:21;;;;;;;9.47;7.00;;;;;;;17.87;100.00;96599.06;5033187;28;20214;-83
2022/05/13 01:10:51;;;;;;;8.73;6.83;;;;;;;17.87;100.00;96604.53;5019326;28;20206;-83
2022/05/13 01:13:23;;;;;;;11.70;6.67;;;;;;;17.80;100.00;96605.88;5027753;28;20346;-82
2022/05/13 01:15:51;;;;;;;7.47;6.10;;;;;;;17.87;100.00;96593.59;5023391;28;20236;-83
2022/05/13 01:18:26;;;;;;;8.57;6.60;;;;;;;18.07;100.00;96579.97;5021126;28;20213;-82
2022/05/13 01:20:54;;;;;;;9.43;6.53;;;;;;;18.21;100.00;96584.91;5026216;28;20226;-82
2022/05/13 01:23:25;;;;;;;9.40;6.30;;;;;;;18.21;100.00;96593.09;5023908;28;20206;-82
2022/05/13 01:25:54;;;;;;;12.33;6.43;;;;;;;18.30;100.00;96607.84;5034053;28;20195;-82
2022/05/13 01:28:24;;;;;;;7.07;6.37;;;;;;;18.27;100.00;96602.97;5040478;28;20198;-82
2022/05/13 01:30:53;;;;;;;9.63;6.23;;;;;;;18.03;100.00;96586.28;5021525;28;20293;-82
2022/05/13 01:33:22;;;;;;;9.20;6.07;;;;;;;18.02;100.00;96590.91;5024404;28;20211;-82
2022/05/13 01:35:52;;;;;;;7.03;5.70;;;;;;;18.03;100.00;96584.34;5037187;28;20202;-82
2022/05/13 01:38:22;;;;;;;7.70;5.60;;;;;;;18.17;100.00;96586.56;5021669;28;20214;-83
2022/05/13 01:40:51;;;;;;;9.37;6.13;;;;;;;18.29;100.00;96592.59;5023899;28;20253;-82
2022/05/13 01:43:18;;;;;;;7.57;5.80;;;;;;;18.31;100.00;96588.47;5033569;28;20209;-82
2022/05/13 01:45:45;;;;;;;8.37;6.30;;;;;;;18.29;100.00;96587.13;5040654;28;20199;-83
2022/05/13 01:48:12;;;;;;;8.30;5.80;;;;;;;18.28;100.00;96575.34;5044752;28;20230;-83
2022/05/13 01:50:40;;;;;;;7.80;6.37;;;;;;;18.28;100.00;96580.81;5027105;28;20202;-82
2022/05/13 01:53:09;;;;;;;11.10;5.97;;;;;;;18.36;100.00;96593.13;5041440;28;20326;-83
2022/05/13 01:55:36;;;;;;;6.33;5.70;;;;;;;18.43;100.00;96590.94;5021297;28;20468;-83
2022/05/13 01:58:05;;;;;;;7.87;5.70;;;;;;;18.45;100.00;96591.47;5034019;28;20234;-83
2022/05/13 02:00:32;;;;;;;6.70;5.97;;;;;;;18.39;100.00;96596.13;5031710;28;20230;-83
2022/05/13 02:05:44;;;;;;;12.33;5.97;;;;;;;18.34;100.00;96595.31;5027393;28;20216;-82
2022/05/13 02:08:11;;;;;;;6.73;5.60;;;;;;;18.36;100.00;96591.22;5025249;28;20206;-83
2022/05/13 02:10:38;;;;;;;7.37;5.30;;;;;;;18.34;100.00;96584.38;5032741;28;20210;-83
2022/05/13 02:13:06;;;;;;;13.57;7.00;;;;;;;18.26;100.00;96583.00;5024920;28;20210;-82
2022/05/13 02:15:33;;;;;;;9.37;6.70;;;;;;;18.19;100.00;96581.63;5035953;28;20207;-83
2022/05/13 02:18:01;;;;;;;9.43;6.13;;;;;;;18.14;100.00;96585.16;5032703;28;20206;-83
2022/05/13 02:20:28;;;;;;;9.40;6.07;;;;;;;18.19;100.00;96578.91;5028132;28;20266;-83
2022/05/13 02:22:55;;;;;;;7.87;5.90;;;;;;;18.22;100.00;96581.91;5026125;28;20202;-83
2022/05/13 02:25:22;;;;;;;7.50;5.47;;;;;;;18.15;100.00;96579.44;5038295;28;20252;-82
2022/05/13 02:27:49;;;;;;;6.40;5.80;;;;;;;18.07;100.00;96574.53;5025392;28;20203;-83
2022/05/13 02:30:18;;;;;;;7.20;5.93;;;;;;;18.02;100.00;96563.59;5038515;28;20226;-83
2022/05/13 02:32:45;;;;;;;9.83;5.83;;;;;;;18.05;100.00;96579.44;5023745;28;20262;-82
2022/05/13 02:35:13;;;;;;;9.80;5.87;;;;;;;18.02;100.00;96582.72;5020243;28;20194;-83
2022/05/13 02:37:40;;;;;;;8.67;5.93;;;;;;;18.05;100.00;96593.09;5040660;28;20206;-83
2022/05/13 02:40:08;;;;;;;8.57;5.90;;;;;;;18.02;100.00;96582.72;5021727;28;20228;-82
2022/05/13 02:42:35;;;;;;;8.10;6.23;;;;;;;18.01;100.00;96575.63;5043546;28;20210;-83
2022/05/13 02:45:02;;;;;;;6.37;5.67;;;;;;;18.07;100.00;96585.44;5023923;28;20199;-83
2022/05/13 02:47:30;;;;;;;12.43;6.17;;;;;;;18.03;100.00;96578.88;5039221;28;20198;-83
2022/05/13 02:52:38;;;;;;;6.93;5.30;;;;;;;18.01;100.00;96583.81;5038479;28;20208;-82
2022/05/13 02:55:07;;;;;;;7.40;6.23;;;;;;;17.98;100.00;96591.72;5030772;28;20214;-82
2022/05/13 02:57:34;;;;;;;5.70;5.10;;;;;;;17.97;100.00;96595.53;5030722;28;20297;-83
2022/05/13 03:00:01;;;;;;;7.97;6.00;;;;;;;17.98;100.00;96611.66;5040826;28;20233;-82
2022/05/13 03:02:30;;;;;;;6.90;6.20;;;;;;;17.99;100.00;96605.09;5037267;28;20218;-82
2022/05/13 03:04:57;;;;;;;9.13;5.90;;;;;;;18.08;100.00;96616.31;5036768;28;20210;-82
2022/05/13 03:07:24;;;;;;;9.17;6.10;;;;;;;18.08;100.00;96611.69;5019559;28;20203;-82
2022/05/13 03:09:51;;;;;;;7.33;6.23;;;;;;;18.03;100.00;96614.38;5020106;28;20206;-82
2022/05/13 03:12:18;;;;;;;8.00;6.20;;;;;;;17.97;100.00;96603.72;5020203;28;20255;-82
2022/05/13 03:14:45;;;;;;;7.67;5.87;;;;;;;17.98;100.00;96603.47;5022130;28;20212;-83
2022/05/13 03:17:12;;;;;;;10.80;6.60;;;;;;;18.01;100.00;96615.78;5033289;28;20213;-83
2022/05/13 03:19:41;;;;;;;9.03;6.37;;;;;;;17.99;100.00;96612.50;5028960;28;20301;-83
2022/05/13 03:22:08;;;;;;;7.97;5.87;;;;;;;18.00;100.00;96612.22;5031382;28;20279;-83
2022/05/13 03:24:36;;;;;;;10.87;6.40;;;;;;;17.96;100.00;96611.09;5041625;28;20208;-83
2022/05/13 03:27:04;;;;;;;9.10;6.00;;;;;;;18.01;100.00;96608.41;5040102;28;20261;-82
2022/05/13 03:29:31;;;;;;;9.13;6.23;;;;;;;17.95;100.00;96609.47;5021637;28;20229;-82
2022/05/13 03:31:59;;;;;;;7.80;6.57;;;;;;;17.84;100.00;96613.28;5017353;28;20209;-82
2022/05/13 03:34:26;;;;;;;8.60;6.00;;;;;;;17.77;100.00;96610.00;5034680;28;20210;-82
2022/05/13 03:36:55;;;;;;;10.50;6.87;;;;;;;17.74;100.00;96615.97;5037943;28;20265;-82
2022/05/13 03:39:22;;;;;;;7.87;6.57;;;;;;;17.64;100.00;96613.22;5037128;28;20210;-82
2022/05/13 03:41:49;;;;;;;8.80;6.30;;;;;;;17.60;100.00;96621.13;5035396;28;20298;-82
2022/05/13 03:44:17;;;;;;;7.13;5.83;;;;;;;17.66;100.00;96624.69;5039706;28;20316;-82
2022/05/13 03:46:44;;;;;;;12.73;7.47;;;;;;;17.69;100.00;96618.72;5043529;28;20202;-82
2022/05/13 03:49:12;;;;;;;8.57;6.90;;;;;;;17.58;100.00;96608.81;5034569;28;20277;-82
2022/05/13 03:51:40;;;;;;;8.73;7.07;;;;;;;17.55;100.00;96612.06;5042240;28;20301;-82
2022/05/13 03:54:10;;;;;;;11.13;6.60;;;;;;;17.50;100.00;96617.53;5028212;28;20305;-82
2022/05/13 03:56:37;;;;;;;7.53;6.67;;;;;;;17.52;100.00;96620.81;5024964;28;20287;-82
2022/05/13 03:59:04;;;;;;;9.20;7.37;;;;;;;17.49;100.00;96619.44;5045174;28;20224;-82
2022/05/13 04:01:31;;;;;;;8.67;6.43;;;;;;;17.48;100.00;96616.97;5025252;28;20326;-82
2022/05/13 04:03:58;;;;;;;9.00;6.50;;;;;;;17.55;100.00;96623.81;5041653;28;20202;-82
2022/05/13 04:09:11;;;;;;;10.10;6.87;;;;;;;17.67;100.00;96634.53;5023333;28;20214;-82
2022/05/13 04:11:41;;;;;;;11.03;7.20;;;;;;;17.72;100.00;96637.28;5031484;28;20292;-82
2022/05/13 04:16:55;;;;;;;11.00;7.30;;;;;;;17.72;100.00;96638.09;5018539;28;20355;-82
2022/05/13 04:19:24;;;;;;;10.03;6.83;;;;;;;17.61;100.00;96641.03;5025438;28;20219;-82
2022/05/13 04:21:51;;;;;;;8.57;6.70;;;;;;;17.56;100.00;96638.28;5027810;28;20241;-82
2022/05/13 04:24:20;;;;;;;11.87;6.67;;;;;;;17.56;100.00;96638.28;5032670;28;20225;-82
2022/05/13 04:26:48;;;;;;;8.00;7.20;;;;;;;17.65;100.00;96653.09;5024823;28;20213;-82
2022/05/13 04:29:16;;;;;;;10.03;6.80;;;;;;;17.52;100.00;96643.47;5034321;28;20217;-82
2022/05/13 04:31:44;;;;;;;10.53;7.90;;;;;;;17.55;100.00;96648.38;5042568;28;20206;-82
2022/05/13 04:34:12;;;;;;;9.97;7.00;;;;;;;17.56;100.00;96655.50;5021589;28;20222;-82
2022/05/13 04:36:39;;;;;;;7.27;6.57;;;;;;;17.50;100.00;96656.56;5017169;28;20206;-82
2022/05/13 04:39:07;;;;;;;8.80;7.03;;;;;;;17.41;100.00;96641.78;5029204;28;20204;-82
2022/05/13 04:44:21;;;;;;;13.70;7.63;;;;;;;17.35;100.00;96649.09;5025643;28;20251;-83
2022/05/13 04:46:48;;;;;;;10.97;7.87;;;;;;;17.39;100.00;96649.41;5027405;28;20195;-82
2022/05/13 04:49:15;;;;;;;11.77;7.80;;;;;;;17.42;100.00;96656.25;5034986;28;20233;-82
2022/05/13 04:51:42;;;;;;;8.47;7.43;;;;;;;17.48;100.00;96655.19;5026606;28;20210;-83
2022/05/13 04:54:09;;;;;;;8.70;7.80;;;;;;;17.48;100.00;96653.28;5041171;28;20248;-82
2022/05/13 04:56:39;;;;;;;11.90;7.37;;;;;;;17.47;100.00;96651.63;5034827;28;20238;-83
2022/05/13 04:59:06;;;;;;;8.77;7.50;;;;;;;17.42;100.00;96650.78;5028338;28;20209;-83
2022/05/13 05:01:34;;;;;;;12.17;8.03;;;;;;;17.41;100.00;96655.44;5024633;28;20293;-82
2022/05/13 05:04:01;;;;;;;11.80;9.13;;;;;;;17.37;100.00;96655.13;5039387;28;20212;-82
2022/05/13 05:06:28;;;;;;;10.83;7.57;;;;;;;17.45;100.00;96663.88;5022491;28;20210;-83
2022/05/13 05:08:56;;;;;;;10.43;7.47;;;;;;;17.43;100.00;96658.72;5033783;28;20225;-82
2022/05/13 05:11:23;;;;;;;9.30;8.17;;;;;;;17.41;100.00;96652.69;5022178;28;20215;-83
2022/05/13 05:13:53;;;;;;;9.40;8.40;;;;;;;17.46;100.00;96660.06;5021046;28;20371;-82
2022/05/13 05:16:22;;;;;;;11.40;7.60;;;;;;;17.47;100.00;96668.00;5034838;28;20218;-82
2022/05/13 05:18:49;;;;;;;10.77;7.80;;;;;;;17.47;100.00;96665.28;5023199;28;20285;-82
2022/05/13 05:21:16;;;;;;;10.33;8.40;;;;;;;17.46;100.00;96654.63;5021893;28;20222;-82
2022/05/13 05:23:45;;;;;;;9.40;7.80;;;;;;;17.53;100.00;96655.19;5028915;28;20322;-82
2022/05/13 05:26:12;;;;;;;11.43;7.97;;;;;;;17.56;100.00;96655.50;5039539;28;20502;-82
2022/05/13 05:28:40;;;;;;;10.27;8.60;;;;;;;17.63;100.00;96664.28;5021690;28;20209;-83
2022/05/13 05:31:11;;;;;;;13.50;7.50;;;;;;;17.70;100.00;96666.75;5035536;28;20194;-83
2022/05/13 05:33:38;;;;;;;13.13;8.27;;;;;;;17.70;100.00;96667.59;5025324;28;20213;-82
2022/05/13 05:36:06;;;;;;;11.70;8.60;;;;;;;17.78;100.00;96663.50;5034003;28;20267;-82
2022/05/13 05:38:33;;;;;;;9.13;7.77;;;;;;;17.78;100.00;96674.44;5026672;28;20218;-82
2022/05/13 05:41:01;;;;;;;10.00;7.60;;;;;;;17.76;100.00;96662.97;5020496;28;20313;-84
2022/05/13 05:43:29;;;;;;;11.77;7.70;;;;;;;17.73;100.00;96660.78;5020322;28;20207;-83
2022/05/13 05:45:58;;;;;;;11.77;8.10;;;;;;;17.67;100.00;96667.31;5029331;28;20210;-82
2022/05/13 05:48:26;;;;;;;10.33;7.60;;;;;;;17.54;100.00;96665.03;5042243;28;20265;-82
2022/05/13 05:50:55;;;;;;;9.40;8.37;;;;;;;17.56;100.00;96665.59;5026616;28;20213;-81
2022/05/13 05:58:50;;;;;;;8.83;7.87;;;;;;;17.57;100.00;96643.47;5041070;28;20209;-85
2022/05/13 06:01:17;;;;;;;12.57;8.70;;;;;;;17.64;100.00;96646.81;5038119;28;20223;-87
2022/05/13 06:03:46;;;;;;;9.17;8.17;;;;;;;17.68;100.00;96650.66;5029649;28;20526;-87
2022/05/13 06:06:13;;;;;;;11.73;7.53;;;;;;;17.81;100.00;96656.69;5031422;28;20209;-85
2022/05/13 06:08:40;;;;;;;7.93;7.07;;;;;;;17.80;100.00;96639.47;5024734;28;20222;-87
2022/05/13 06:11:09;;;;;;;9.10;7.50;;;;;;;17.90;100.00;96647.72;5039069;28;20209;-87
2022/05/13 06:13:36;;;;;;;15.80;9.20;;;;;;;17.96;100.00;96645.81;5032776;28;20210;-87
2022/05/13 06:16:03;;;;;;;10.50;7.60;;;;;;;18.12;100.00;96661.13;5038524;28;20342;-87
2022/05/13 06:18:31;;;;;;;10.47;7.33;;;;;;;18.13;100.00;96649.13;5017062;28;20233;-88
2022/05/13 06:21:00;;;;;;;8.73;7.60;;;;;;;18.08;100.00;96651.84;5042081;28;20226;-85
2022/05/13 06:23:27;;;;;;;10.17;7.57;;;;;;;18.07;100.00;96640.09;5036643;28;20202;-87
2022/05/13 06:25:54;;;;;;;13.60;6.70;;;;;;;18.08;100.00;96647.22;5043050;28;20225;-87
2022/05/13 06:28:21;;;;;;;15.93;7.00;;;;;;;18.09;100.00;96648.84;5022193;28;20215;-87
2022/05/13 06:30:48;;;;;;;12.43;7.10;;;;;;;18.21;100.00;96642.28;5035578;28;20209;-87
2022/05/13 06:33:15;;;;;;;11.07;7.53;;;;;;;18.31;100.00;96634.94;5032076;28;20206;-87
2022/05/13 06:35:43;;;;;;;11.23;6.77;;;;;;;18.34;100.00;96633.56;5037339;28;20210;-86
2022/05/13 06:38:20;;;;;;;11.03;7.37;;;;;;;18.38;100.00;96627.28;5044851;28;20261;-86
2022/05/13 06:40:48;;;;;;;10.83;6.93;;;;;;;18.30;100.00;96633.28;5023203;28;20213;-87
2022/05/13 06:43:15;;;;;;;10.77;7.07;;;;;;;18.41;100.00;96623.19;5042191;28;20195;-87
2022/05/13 06:45:43;;;;;;;10.80;6.80;;;;;;;18.40;100.00;96622.38;5035351;28;20296;-85
2022/05/13 06:48:16;;;;;;;11.90;6.73;;;;;;;18.41;100.00;96623.19;5041412;28;20198;-87
2022/05/13 06:50:47;;;;;;;13.67;6.83;;;;;;;18.47;100.00;96628.38;5038855;28;20221;-87
2022/05/13 06:53:18;;;;;;;9.80;6.47;;;;;;;18.52;100.00;96630.31;5026722;28;20306;-88
2022/05/13 06:55:45;;;;;;;10.23;6.70;;;;;;;18.62;100.00;96630.34;5042425;28;20205;-86
2022/05/13 06:58:12;;;;;;;20.07;7.47;;;;;;;18.73;100.00;96637.41;5021034;28;20265;-85
2022/05/13 07:00:40;;;;;;;8.50;6.60;;;;;;;18.87;100.00;96648.66;5037650;28;20250;-85
2022/05/13 07:03:07;;;;;;;13.60;7.30;;;;;;;18.94;100.00;96642.88;5020266;28;20210;-83
2022/05/13 07:05:34;;;;;;;11.17;6.60;;;;;;;19.00;100.00;96633.56;5022799;28;20264;-87
2022/05/13 07:08:02;;;;;;;8.20;7.20;;;;;;;19.03;100.00;96633.00;5026425;28;20245;-87
2022/05/13 07:10:30;;;;;;;9.93;7.70;;;;;;;19.10;100.00;96641.75;5029994;28;20225;-87
2022/05/13 07:12:58;;;;;;;11.57;8.20;;;;;;;18.98;100.00;96636.56;5044301;28;20210;-86
2022/05/13 07:15:25;;;;;;;13.20;8.23;;;;;;;18.98;100.00;96641.22;5038838;28;20297;-83
2022/05/13 07:17:52;;;;;;;10.93;8.17;;;;;;;19.00;100.00;96644.50;5017235;28;20255;-87
2022/05/13 07:20:19;;;;;;;14.60;7.63;;;;;;;19.03;100.00;96635.75;5014332;28;20322;-90
2022/05/13 07:22:46;;;;;;;12.17;8.10;;;;;;;19.13;100.00;96652.97;5025592;28;20219;-90
2022/05/13 07:25:14;;;;;;;11.10;8.30;;;;;;;19.14;100.00;96651.06;5025466;28;20265;-87
2022/05/13 07:27:42;;;;;;;11.82;8.57;;;;;;;19.23;100.00;96646.63;5015279;28;20210;-87
2022/05/13 07:30:10;;;;;;;13.07;9.00;;;;;;;19.23;100.00;96652.09;5038399;28;20207;-87
2022/05/13 07:32:38;;;;;;;11.50;9.07;;;;;;;19.28;100.00;96652.94;5037572;28;20207;-88
2022/05/13 07:35:06;;;;;;;12.90;8.70;;;;;;;19.25;100.00;96656.22;5029632;28;20210;-85
2022/05/13 07:37:33;;;;;;;14.57;9.30;;;;;;;19.27;100.00;96645.00;5040605;28;20209;-83
2022/05/13 07:42:46;;;;;;;13.73;9.17;;;;;;;19.40;100.00;96636.19;5032634;28;20225;-83
2022/05/13 07:45:13;;;;;;;13.80;9.43;;;;;;;19.47;100.00;96635.91;5037765;28;20198;-83
2022/05/13 07:47:42;;;;;;;12.27;9.13;;;;;;;19.51;100.00;96632.34;5043424;28;20233;-82
2022/05/13 07:50:11;;;;;;;13.85;9.55;;;;;;;19.69;100.00;96638.28;5023712;28;20202;-82
2022/05/13 07:52:41;;;;;;;11.70;8.93;;;;;;;19.77;100.00;96634.97;5027328;28;20207;-82
2022/05/13 07:55:10;;;;;;;11.85;9.10;;;;;;;20.02;100.00;96643.88;5027736;28;20202;-84
2022/05/13 07:57:40;;;;;;;14.95;9.43;;;;;;;20.10;100.00;96639.72;5025198;28;20244;-83
2022/05/13 08:00:27;;;;;;;12.02;9.35;;;;;;;20.16;100.00;96637.78;5040634;28;20218;-87
2022/05/13 08:02:57;;;;;;;10.75;8.55;;;;;;;20.50;100.00;96640.59;5031229;28;20237;-87
2022/05/13 08:05:27;;;;;;;11.75;9.20;;;;;;;20.93;100.00;96644.31;5029188;28;20203;-88
2022/05/13 08:08:05;;;;;;;11.70;8.82;;;;;;;21.31;100.00;96639.84;5022242;28;20198;-89
2022/05/13 08:10:33;;;;;;;10.38;8.07;;;;;;;21.70;100.00;96632.22;5041061;28;20293;-88
2022/05/13 08:13:01;;;;;;;10.23;8.40;;;;;;;22.00;100.00;96635.72;5044714;28;20205;-91
2022/05/13 08:15:30;;;;;;;12.40;9.00;;;;;;;22.19;100.00;96625.56;5043681;28;20203;-88
2022/05/13 08:17:58;;;;;;;12.00;8.82;;;;;;;22.48;100.00;96617.13;5026298;28;20221;-87
2022/05/13 08:20:26;;;;;;;9.88;8.48;;;;;;;22.55;100.00;96629.38;5022335;28;20349;-87
2022/05/13 08:22:54;;;;;;;11.02;9.25;;;;;;;22.45;100.00;96624.06;5037334;28;20239;-85
2022/05/13 08:25:21;;;;;;;12.90;9.10;;;;;;;22.27;100.00;96624.88;5023963;28;20202;-89
2022/05/13 08:27:48;;;;;;;12.18;8.18;;;;;;;22.06;100.00;96627.09;5025570;28;20203;-89
2022/05/13 08:30:19;;;;;;;17.10;8.80;;;;;;;21.80;100.00;96642.25;5035291;28;20211;-90
2022/05/13 08:32:48;;;;;;;8.40;7.55;;;;;;;21.62;100.00;96626.56;5030370;28;20213;-89
2022/05/13 08:35:16;;;;;;;14.18;8.40;;;;;;;21.45;100.00;96638.03;5021896;28;20202;-89
2022/05/13 08:37:45;;;;;;;14.73;9.07;;;;;;;21.32;100.00;96644.22;5017119;28;20210;-87
2022/05/13 08:40:22;;;;;;;13.88;8.65;;;;;;;20.94;100.00;96622.06;5019358;28;20206;-86
2022/05/13 08:42:49;;;;;;;9.77;8.15;;;;;;;20.92;100.00;96628.97;5024467;28;20252;-89
2022/05/13 08:45:20;;;;;;;13.80;8.05;;;;;;;21.04;100.00;96629.38;5031772;28;20262;-89
2022/05/13 08:47:53;;;;;;;13.82;8.43;;;;;;;21.20;100.00;96628.13;5044668;28;20206;-90
2022/05/13 08:50:31;;;;;;;15.93;7.75;;;;;;;21.42;100.00;96639.44;5053579;28;20270;-89
2022/05/13 08:53:20;;;;;;;12.98;7.78;;;;;;;21.67;100.00;96630.06;5027743;28;20194;-89
2022/05/13 08:55:50;;;;;;;7.95;7.15;;;;;;;22.03;99.26;96641.44;5024460;28;20216;-89
2022/05/13 08:58:22;;;;;;;12.38;6.82;;;;;;;22.39;96.97;96618.91;5030048;28;20521;-90
2022/05/13 09:00:52;;;;;;;9.32;7.47;;;;;;;22.62;93.62;96620.75;5026876;28;20216;-89
2022/05/13 09:03:34;;;;;;;9.20;7.03;;;;;;;23.08;92.68;96628.22;5028853;28;20373;-89
2022/05/13 09:06:04;;;;;;;12.20;6.65;;;;;;;23.46;90.87;96618.69;5017204;28;20199;-89
2022/05/13 09:08:32;;;;;;;12.75;7.22;;;;;;;23.40;88.65;96626.22;5013224;28;20236;-90
2022/05/13 09:11:14;;;;;;;9.05;6.75;;;;;;;22.92;89.76;96613.94;5041531;28;20202;-90
2022/05/13 09:13:50;;;;;;;10.05;7.57;;;;;;;22.55;90.93;96618.38;5033095;28;20206;-90
2022/05/13 09:16:26;;;;;;;11.18;7.15;;;;;;;22.35;92.85;96624.22;5024044;28;20224;-90
2022/05/13 09:19:03;;;;;;;11.07;7.00;;;;;;;22.25;94.73;96624.34;5027806;28;20297;-90
2022/05/13 09:21:30;;;;;;;13.93;7.07;;;;;;;22.27;91.95;96616.63;5038408;28;20342;-90
2022/05/13 09:23:57;;;;;;;6.90;5.57;;;;;;;22.19;90.59;96620.88;5023633;28;20202;-89
2022/05/13 09:26:27;;;;;;;9.38;6.07;;;;;;;22.34;90.74;96625.31;5041297;28;20278;-90
2022/05/13 09:29:08;;;;;;;9.23;5.82;;;;;;;22.37;90.50;96621.16;5049155;28;20217;-90
2022/05/13 09:31:39;;;;;;;11.20;6.85;;;;;;;22.21;92.41;96617.78;5043005;28;20206;-90
2022/05/13 09:34:31;;;;;;;16.60;6.63;;;;;;;22.11;92.92;96628.97;5024366;28;20282;-90
2022/05/13 09:37:09;;;;;;;15.45;7.95;;;;;;;22.23;92.34;96616.41;5044404;28;20215;-90
2022/05/13 09:39:40;;;;;;;55.35;11.68;;;;;;;22.42;91.77;96613.63;5022259;28;20241;-90
2022/05/13 09:42:36;;;;;;;11.82;6.30;;;;;;;22.63;90.04;96601.16;5028013;28;20222;-90
2022/05/13 09:45:23;;;;;;;7.00;5.93;;;;;;;22.64;89.60;96601.97;5022804;28;20218;-89
2022/05/13 09:48:10;;;;;;;11.38;5.85;;;;;;;22.50;89.19;96604.69;5045813;28;20210;-88
2022/05/13 09:50:42;;;;;;;11.95;5.20;;;;;;;22.44;86.94;96597.66;5034860;28;20194;-90
2022/05/13 09:53:34;;;;;;;20.05;6.03;;;;;;;22.56;88.05;96597.16;5028305;28;20255;-91
2022/05/13 09:56:04;;;;;;;20.00;5.53;;;;;;;22.46;85.90;96598.16;5023275;28;20244;-90
2022/05/13 09:58:35;;;;;;;11.02;5.47;;;;;;;22.47;86.70;96602.53;5039380;28;20268;-90
2022/05/13 10:01:05;;;;;;;17.67;6.80;;;;;;;22.19;88.24;96598.88;5028502;28;20206;-90
2022/05/13 10:03:37;;;;;;;10.18;6.25;;;;;;;22.10;90.27;96602.59;5031445;28;20217;-87
2022/05/13 10:06:19;;;;;;;30.02;8.05;;;;;;;22.18;91.43;96602.72;5036375;28;20302;-87
2022/05/13 10:08:51;;;;;;;19.33;6.57;;;;;;;22.24;91.56;96595.22;5023723;28;20209;-87
2022/05/13 10:14:24;;;;;;;99.35;14.45;;;;;;;22.18;86.10;96599.16;5030822;28;20274;-88
2022/05/13 10:16:52;;;;;;;17.98;6.60;;;;;;;22.20;88.78;96600.47;5044945;28;20210;-89
2022/05/13 10:19:24;;;;;;;9.20;5.20;;;;;;;22.20;87.37;96605.19;5035635;28;20301;-87
2022/05/13 10:22:02;;;;;;;6.53;5.00;;;;;;;22.40;86.43;96593.03;5054677;28;20226;-86
2022/05/13 10:24:34;;;;;;;6.38;4.25;;;;;;;22.92;81.38;96600.16;5031278;28;20564;-87
2022/05/13 10:27:04;;;;;;;5.30;3.88;;;;;;;23.12;77.43;96605.31;5031339;28;20218;-88
2022/05/13 10:29:37;;;;;;;6.68;3.80;;;;;;;23.27;76.24;96598.69;5024820;28;20218;-87
2022/05/13 10:32:13;;;;;;;5.70;3.30;;;;;;;23.63;71.73;96576.75;5031840;28;20280;-87
2022/05/13 10:34:47;;;;;;;3.45;3.15;;;;;;;23.92;71.43;96574.44;5039357;28;20301;-87
2022/05/13 10:37:21;;;;;;;3.55;3.08;;;;;;;24.21;69.02;96578.81;5031467;28;20209;-88
2022/05/13 10:40:38;;;;;;;7.80;3.80;;;;;;;24.02;70.86;96570.66;5018496;28;20310;-87
2022/05/13 10:43:08;;;;;;;9.48;4.07;;;;;;;;;;5004877;28;20296;-87
2022/05/13 10:45:37;;;;;;;8.88;3.17;;;;;;;24.37;63.89;96574.56;5025265;28;20229;-87
2022/05/13 10:48:17;;;;;;;4.20;3.20;;;;;;;24.30;66.03;96572.22;5022248;28;20297;-87
2022/05/13 10:50:57;;;;;;;7.68;3.80;;;;;;;24.41;65.35;96583.84;5044441;28;20217;-86
2022/05/13 10:53:49;;;;;;;5.07;3.53;;;;;;;24.46;65.50;96580.94;5019939;28;20209;-86
2022/05/13 10:56:24;;;;;;;5.75;3.83;;;;;;;24.47;65.68;96574.31;5024292;28;20246;-88
2022/05/13 10:59:08;;;;;;;7.28;3.40;;;;;;;24.49;63.35;96578.41;5026054;28;20216;-87
2022/05/13 11:01:48;;;;;;;3.83;3.00;;;;;;;24.36;63.07;96582.00;5031611;28;20272;-86
2022/05/13 11:04:24;;;;;;;7.82;3.40;;;;;;;24.31;64.71;96581.31;5023290;28;20223;-87
2022/05/13 11:07:06;;;;;;;4.75;3.65;;;;;;;24.23;65.96;96571.84;5025877;28;20217;-87
2022/05/13 11:09:47;;;;;;;8.02;3.30;;;;;;;24.28;63.35;96576.44;5019791;28;20201;-87
2022/05/13 11:12:26;;;;;;;4.43;3.33;;;;;;;24.50;64.45;96568.97;5024921;28;20210;-86
2022/05/13 11:15:06;;;;;;;8.65;3.50;;;;;;;24.38;64.02;96570.66;5045631;28;20308;-86
2022/05/13 11:17:41;;;;;;;3.72;3.33;;;;;;;24.44;63.77;96563.88;5026276;28;20232;-87
2022/05/13 11:20:18;;;;;;;9.65;3.67;;;;;;;24.75;65.42;96567.50;5036810;28;20220;-87
2022/05/13 11:22:53;;;;;;;5.03;3.20;;;;;;;24.47;64.25;96574.31;5033374;28;20286;-87
2022/05/13 11:28:36;;;;;;;12.80;4.45;;;;;;;24.52;63.54;96563.94;5018219;28;20214;-87
2022/05/13 11:31:17;;;;;;;6.88;3.35;;;;;;;24.73;63.71;96557.91;5029729;28;20238;-86
2022/05/13 11:33:52;;;;;;;7.85;3.75;;;;;;;24.59;63.30;96560.72;5026733;28;20206;-87
2022/05/13 11:36:35;;;;;;;3.58;3.22;;;;;;;24.40;63.10;96565.66;5026369;28;20396;-87
2022/05/13 11:39:41;;;;;;;5.68;3.78;;;;;;;24.61;63.74;96552.97;5032039;28;20256;-87
2022/05/13 11:42:26;;;;;;;6.07;3.70;;;;;;;24.77;64.13;96554.19;5013748;28;20309;-88
2022/05/13 11:45:15;;;;;;;7.63;4.15;;;;;;;24.98;60.06;96551.75;5026945;28;20210;-87
2022/05/13 11:47:56;;;;;;;6.40;3.67;;;;;;;24.96;59.60;96547.66;5024758;28;20287;-87
2022/05/13 11:50:23;;;;;;;3.95;3.50;;;;;;;24.77;60.31;96536.81;5031422;28;20217;-88
2022/05/13 11:52:53;;;;;;;6.45;3.60;;;;;;;24.70;60.82;96550.25;5032812;28;20206;-87
2022/05/13 11:55:43;;;;;;;8.20;4.20;;;;;;;24.52;62.56;96554.84;5033378;28;20238;-86
2022/05/13 11:58:50;;;;;;;5.95;4.07;;;;;;;24.19;64.33;96550.66;5035464;28;20231;-86
2022/05/13 12:01:49;;;;;;;6.25;4.07;;;;;;;24.16;66.29;96556.84;5022249;28;20214;-86
2022/05/13 12:04:40;;;;;;;5.78;3.97;;;;;;;23.92;64.84;96562.59;5033014;28;20325;-86
2022/05/13 12:07:29;;;;;;;6.95;3.78;;;;;;;23.89;65.74;96558.53;5042498;28;20221;-87
2022/05/13 12:09:58;;;;;;;7.80;3.90;;;;;;;23.81;65.89;96556.53;5036002;28;20501;-86